createdAt,value
2018-07-10T00:00:07.324Z,0.00
2018-07-10T00:01:07.312Z,0.00
2018-07-10T00:02:07.296Z,0.00
2018-07-10T00:03:07.285Z,0.00
2018-07-10T00:04:07.270Z,0.00
2018-07-10T00:05:07.259Z,0.00
2018-07-10T00:06:07.245Z,0.00
2018-07-10T00:07:07.234Z,0.00
2018-07-10T00:08:07.274Z,0.00
2018-07-10T00:09:07.204Z,0.00
2018-07-10T00:10:07.190Z,0.00
2018-07-10T00:11:07.176Z,0.00
2018-07-10T00:12:07.164Z,0.00
2018-07-10T00:13:07.153Z,0.00
2018-07-10T00:14:07.133Z,0.00
2018-07-10T00:15:07.121Z,0.00
2018-07-10T00:16:07.108Z,0.00
2018-07-10T00:17:07.095Z,0.00
2018-07-10T00:18:07.081Z,0.00
2018-07-10T00:19:07.070Z,0.00
2018-07-10T00:20:07.054Z,0.00
2018-07-10T00:21:07.040Z,0.00
2018-07-10T00:22:07.025Z,0.00
2018-07-10T00:23:07.011Z,0.00
2018-07-10T00:24:07.000Z,0.00
2018-07-10T00:25:06.988Z,0.00
2018-07-10T00:26:06.976Z,0.00
2018-07-10T00:27:06.957Z,0.00
2018-07-10T00:28:06.946Z,0.00
2018-07-10T00:29:06.938Z,0.00
2018-07-10T00:30:06.917Z,0.00
2018-07-10T00:31:06.913Z,0.00
2018-07-10T00:32:06.890Z,0.00
2018-07-10T00:33:06.887Z,0.00
2018-07-10T00:34:06.871Z,0.00
2018-07-10T00:35:06.855Z,0.00
2018-07-10T00:36:06.837Z,0.00
2018-07-10T00:37:06.828Z,0.00
2018-07-10T00:38:06.810Z,0.00
2018-07-10T00:39:06.804Z,0.00
2018-07-10T00:40:06.783Z,0.00
2018-07-10T00:41:06.779Z,0.00
2018-07-10T00:42:06.759Z,0.00
2018-07-10T00:43:06.741Z,0.00
2018-07-10T00:44:06.729Z,0.00
2018-07-10T00:45:06.718Z,0.00
2018-07-10T00:46:06.701Z,0.00
2018-07-10T00:47:06.692Z,0.00
2018-07-10T00:48:06.672Z,0.00
2018-07-10T00:49:06.660Z,0.00
2018-07-10T00:50:06.655Z,0.00
2018-07-10T00:51:06.633Z,0.00
2018-07-10T00:52:06.620Z,0.00
2018-07-10T00:53:06.607Z,0.00
2018-07-10T00:54:06.591Z,0.00
2018-07-10T00:55:06.580Z,0.00
2018-07-10T00:56:06.564Z,0.00
2018-07-10T00:57:06.553Z,0.00
2018-07-10T00:58:06.536Z,0.00
2018-07-10T00:59:06.524Z,0.00
2018-07-10T01:00:06.517Z,0.00
2018-07-10T01:01:06.508Z,0.00
2018-07-10T01:02:06.484Z,0.00
2018-07-10T01:03:06.470Z,0.00
2018-07-10T01:04:06.456Z,0.00
2018-07-10T01:05:06.445Z,0.00
2018-07-10T01:06:06.428Z,0.00
2018-07-10T01:07:06.413Z,0.00
2018-07-10T01:08:06.402Z,0.00
2018-07-10T01:09:06.387Z,0.00
2018-07-10T01:10:06.388Z,0.00
2018-07-10T01:11:06.360Z,0.00
2018-07-10T01:12:06.350Z,0.00
2018-07-10T01:13:06.332Z,0.00
2018-07-10T01:14:06.324Z,0.00
2018-07-10T01:15:06.305Z,0.00
2018-07-10T01:16:06.293Z,0.00
2018-07-10T01:17:06.277Z,0.00
2018-07-10T01:18:06.264Z,0.00
2018-07-10T01:19:06.255Z,0.00
2018-07-10T01:20:06.237Z,0.00
2018-07-10T01:21:06.224Z,0.00
2018-07-10T01:22:06.209Z,0.00
2018-07-10T01:23:06.195Z,0.00
2018-07-10T01:24:06.182Z,0.00
2018-07-10T01:25:06.177Z,0.00
2018-07-10T01:26:06.155Z,0.00
2018-07-10T01:27:06.141Z,0.00
2018-07-10T01:28:06.128Z,0.00
2018-07-10T01:29:06.118Z,0.00
2018-07-10T01:30:06.099Z,0.00
2018-07-10T01:31:06.088Z,0.00
2018-07-10T01:32:06.072Z,0.00
2018-07-10T01:33:06.061Z,0.00
2018-07-10T01:34:06.048Z,0.00
2018-07-10T01:35:06.031Z,0.00
2018-07-10T01:36:06.018Z,0.00
2018-07-10T01:37:06.005Z,0.00
2018-07-10T01:38:05.988Z,0.00
2018-07-10T01:39:05.976Z,0.00
2018-07-10T01:40:05.961Z,0.00
2018-07-10T01:41:05.947Z,0.00
2018-07-10T01:42:05.936Z,0.00
2018-07-10T01:43:05.921Z,0.00
2018-07-10T01:44:05.906Z,0.00
2018-07-10T01:45:05.898Z,0.00
2018-07-10T01:46:05.879Z,0.00
2018-07-10T01:47:05.865Z,0.00
2018-07-10T01:48:05.851Z,0.00
2018-07-10T01:49:05.891Z,0.00
2018-07-10T01:50:05.824Z,0.00
2018-07-10T01:51:05.810Z,0.00
2018-07-10T01:52:05.801Z,0.00
2018-07-10T01:53:05.786Z,0.00
2018-07-10T01:54:05.771Z,0.00
2018-07-10T01:55:05.757Z,0.00
2018-07-10T01:56:05.745Z,0.00
2018-07-10T01:57:05.730Z,0.00
2018-07-10T01:58:05.713Z,0.00
2018-07-10T01:59:05.700Z,0.00
2018-07-10T02:00:05.688Z,0.00
2018-07-10T02:01:05.672Z,0.00
2018-07-10T02:02:05.657Z,0.00
2018-07-10T02:03:05.645Z,0.00
2018-07-10T02:04:05.633Z,0.00
2018-07-10T02:05:05.618Z,0.00
2018-07-10T02:06:05.603Z,0.00
2018-07-10T02:07:05.590Z,0.00
2018-07-10T02:08:05.577Z,0.00
2018-07-10T02:09:05.564Z,0.00
2018-07-10T02:10:05.549Z,0.00
2018-07-10T02:11:05.533Z,0.00
2018-07-10T02:12:05.521Z,0.00
2018-07-10T02:13:05.506Z,0.00
2018-07-10T02:14:05.507Z,0.00
2018-07-10T02:15:05.479Z,0.00
2018-07-10T02:16:05.465Z,0.00
2018-07-10T02:17:05.450Z,0.00
2018-07-10T02:18:05.436Z,0.00
2018-07-10T02:19:05.421Z,0.00
2018-07-10T02:20:05.413Z,0.00
2018-07-10T02:21:05.396Z,0.00
2018-07-10T02:22:05.378Z,0.00
2018-07-10T02:23:05.368Z,0.00
2018-07-10T02:24:05.353Z,0.00
2018-07-10T02:25:05.395Z,0.00
2018-07-10T02:26:05.376Z,0.00
2018-07-10T02:27:05.307Z,0.00
2018-07-10T02:28:05.298Z,0.00
2018-07-10T02:29:05.287Z,0.00
2018-07-10T02:30:05.268Z,0.00
2018-07-10T02:31:05.258Z,0.00
2018-07-10T02:32:05.240Z,0.00
2018-07-10T02:33:05.227Z,0.00
2018-07-10T02:34:05.215Z,0.00
2018-07-10T02:35:05.197Z,0.00
2018-07-10T02:36:05.196Z,0.00
2018-07-10T02:37:05.176Z,0.00
2018-07-10T02:38:05.154Z,0.00
2018-07-10T02:39:05.141Z,0.00
2018-07-10T02:40:05.126Z,0.00
2018-07-10T02:41:05.113Z,0.00
2018-07-10T02:42:05.101Z,0.00
2018-07-10T02:43:05.085Z,0.00
2018-07-10T02:44:05.071Z,0.00
2018-07-10T02:45:05.059Z,0.00
2018-07-10T02:46:05.040Z,0.00
2018-07-10T02:47:05.028Z,0.00
2018-07-10T02:48:05.012Z,0.00
2018-07-10T02:49:05.001Z,0.00
2018-07-10T02:50:04.983Z,0.00
2018-07-10T02:51:04.969Z,0.00
2018-07-10T02:52:04.957Z,0.00
2018-07-10T02:53:04.943Z,0.00
2018-07-10T02:54:04.925Z,0.00
2018-07-10T02:55:04.916Z,0.00
2018-07-10T02:56:04.901Z,0.00
2018-07-10T02:57:04.885Z,0.00
2018-07-10T02:58:04.875Z,0.00
2018-07-10T02:59:04.857Z,0.00
2018-07-10T03:00:04.844Z,0.00
2018-07-10T03:01:04.828Z,0.00
2018-07-10T03:02:04.813Z,0.00
2018-07-10T03:03:04.799Z,0.00
2018-07-10T03:04:04.784Z,0.00
2018-07-10T03:05:04.773Z,0.00
2018-07-10T03:06:04.757Z,0.00
2018-07-10T03:07:04.742Z,0.00
2018-07-10T03:08:04.732Z,0.00
2018-07-10T03:09:04.713Z,0.00
2018-07-10T03:10:04.708Z,0.00
2018-07-10T03:11:04.688Z,5.63
2018-07-10T03:12:04.668Z,5.63
2018-07-10T03:13:04.660Z,5.63
2018-07-10T03:14:04.640Z,5.63
2018-07-10T03:15:04.627Z,5.63
2018-07-10T03:16:04.613Z,5.63
2018-07-10T03:17:04.599Z,5.63
2018-07-10T03:18:04.584Z,5.63
2018-07-10T03:19:04.571Z,5.63
2018-07-10T03:20:04.560Z,5.63
2018-07-10T03:21:04.545Z,5.63
2018-07-10T03:22:04.529Z,5.63
2018-07-10T03:23:04.538Z,5.63
2018-07-10T03:24:04.499Z,5.63
2018-07-10T03:25:04.485Z,5.63
2018-07-10T03:26:04.467Z,5.63
2018-07-10T03:27:04.454Z,5.63
2018-07-10T03:28:04.440Z,5.63
2018-07-10T03:29:04.425Z,5.63
2018-07-10T03:30:04.424Z,5.63
2018-07-10T03:31:04.403Z,5.63
2018-07-10T03:32:04.381Z,5.63
2018-07-10T03:33:04.366Z,11.25
2018-07-10T03:34:04.354Z,11.25
2018-07-10T03:35:04.342Z,11.25
2018-07-10T03:36:04.324Z,11.25
2018-07-10T03:37:04.317Z,11.25
2018-07-10T03:38:04.298Z,16.88
2018-07-10T03:39:04.280Z,16.88
2018-07-10T03:40:04.269Z,16.88
2018-07-10T03:41:04.251Z,16.88
2018-07-10T03:42:04.238Z,16.88
2018-07-10T03:43:04.223Z,16.88
2018-07-10T03:44:04.207Z,16.88
2018-07-10T03:45:04.198Z,16.88
2018-07-10T03:46:04.179Z,22.50
2018-07-10T03:47:04.163Z,22.50
2018-07-10T03:48:04.150Z,22.50
2018-07-10T03:49:04.138Z,22.50
2018-07-10T03:50:04.119Z,22.50
2018-07-10T03:51:04.104Z,22.50
2018-07-10T03:52:04.094Z,28.13
2018-07-10T03:53:04.078Z,28.13
2018-07-10T03:54:04.060Z,33.75
2018-07-10T03:55:04.044Z,33.75
2018-07-10T03:56:04.033Z,33.75
2018-07-10T03:57:04.021Z,33.75
2018-07-10T03:58:04.001Z,33.75
2018-07-10T03:59:03.991Z,28.13
2018-07-10T04:00:03.972Z,28.13
2018-07-10T04:01:03.958Z,22.50
2018-07-10T04:02:03.942Z,22.50
2018-07-10T04:03:03.929Z,22.50
2018-07-10T04:04:03.915Z,22.50
2018-07-10T04:05:03.903Z,28.13
2018-07-10T04:06:03.889Z,28.13
2018-07-10T04:07:03.872Z,33.75
2018-07-10T04:08:03.857Z,39.38
2018-07-10T04:09:03.854Z,45.00
2018-07-10T04:10:03.828Z,50.63
2018-07-10T04:11:03.818Z,50.63
2018-07-10T04:12:03.799Z,50.63
2018-07-10T04:13:03.784Z,56.25
2018-07-10T04:14:03.768Z,56.25
2018-07-10T04:15:03.755Z,56.25
2018-07-10T04:16:03.741Z,50.63
2018-07-10T04:17:03.726Z,50.63
2018-07-10T04:18:03.715Z,50.63
2018-07-10T04:19:03.699Z,50.63
2018-07-10T04:20:03.684Z,50.63
2018-07-10T04:21:03.668Z,45.00
2018-07-10T04:22:03.655Z,39.38
2018-07-10T04:23:03.644Z,39.38
2018-07-10T04:24:03.638Z,39.38
2018-07-10T04:25:03.608Z,39.38
2018-07-10T04:26:03.600Z,33.75
2018-07-10T04:27:03.589Z,33.75
2018-07-10T04:28:03.565Z,33.75
2018-07-10T04:29:03.556Z,33.75
2018-07-10T04:30:03.538Z,33.75
2018-07-10T04:31:03.520Z,33.75
2018-07-10T04:32:03.512Z,39.38
2018-07-10T04:33:03.501Z,39.38
2018-07-10T04:34:03.477Z,45.00
2018-07-10T04:35:03.466Z,45.00
2018-07-10T04:36:03.450Z,50.63
2018-07-10T04:37:03.435Z,45.00
2018-07-10T04:38:03.423Z,39.38
2018-07-10T04:39:03.415Z,33.75
2018-07-10T04:40:03.392Z,33.75
2018-07-10T04:41:03.378Z,33.75
2018-07-10T04:42:03.367Z,33.75
2018-07-10T04:43:03.348Z,33.75
2018-07-10T04:44:03.334Z,39.38
2018-07-10T04:45:03.323Z,39.38
2018-07-10T04:46:03.305Z,45.00
2018-07-10T04:47:03.293Z,45.00
2018-07-10T04:48:03.276Z,50.63
2018-07-10T04:49:03.283Z,56.25
2018-07-10T04:50:03.250Z,56.25
2018-07-10T04:51:03.233Z,56.25
2018-07-10T04:52:03.219Z,56.25
2018-07-10T04:53:03.208Z,50.63
2018-07-10T04:54:03.192Z,50.63
2018-07-10T04:55:03.177Z,50.63
2018-07-10T04:56:03.161Z,50.63
2018-07-10T04:57:03.147Z,50.63
2018-07-10T04:58:03.131Z,50.63
2018-07-10T04:59:03.118Z,50.63
2018-07-10T05:00:03.106Z,50.63
2018-07-10T05:01:03.095Z,56.25
2018-07-10T05:02:03.077Z,56.25
2018-07-10T05:03:03.061Z,61.88
2018-07-10T05:04:03.046Z,61.88
2018-07-10T05:05:03.031Z,61.88
2018-07-10T05:06:03.019Z,61.88
2018-07-10T05:07:03.002Z,61.88
2018-07-10T05:08:02.987Z,61.88
2018-07-10T05:09:02.975Z,61.88
2018-07-10T05:10:02.958Z,61.88
2018-07-10T05:11:02.944Z,61.88
2018-07-10T05:12:02.999Z,56.25
2018-07-10T05:13:02.915Z,56.25
2018-07-10T05:14:02.910Z,56.25
2018-07-10T05:15:02.888Z,56.25
2018-07-10T05:16:02.874Z,56.25
2018-07-10T05:17:02.860Z,56.25
2018-07-10T05:18:02.845Z,56.25
2018-07-10T05:19:02.829Z,56.25
2018-07-10T05:20:02.817Z,56.25
2018-07-10T05:21:02.801Z,56.25
2018-07-10T05:22:02.786Z,61.88
2018-07-10T05:23:02.816Z,67.50
2018-07-10T05:24:02.765Z,67.50
2018-07-10T05:25:02.743Z,78.75
2018-07-10T05:26:02.730Z,90.00
2018-07-10T05:27:02.715Z,90.00
2018-07-10T05:28:02.701Z,95.63
2018-07-10T05:29:02.720Z,112.50
2018-07-10T05:30:02.678Z,112.50
2018-07-10T05:31:02.666Z,112.50
2018-07-10T05:32:02.644Z,112.50
2018-07-10T05:33:02.631Z,101.25
2018-07-10T05:34:02.617Z,90.00
2018-07-10T05:35:02.600Z,90.00
2018-07-10T05:36:02.590Z,84.38
2018-07-10T05:37:02.573Z,78.75
2018-07-10T05:38:02.557Z,78.75
2018-07-10T05:39:02.543Z,73.13
2018-07-10T05:40:02.530Z,73.13
2018-07-10T05:41:02.519Z,67.50
2018-07-10T05:42:02.503Z,67.50
2018-07-10T05:43:02.490Z,61.88
2018-07-10T05:44:02.471Z,61.88
2018-07-10T05:45:02.462Z,56.25
2018-07-10T05:46:02.445Z,56.25
2018-07-10T05:47:02.432Z,56.25
2018-07-10T05:48:02.418Z,50.63
2018-07-10T05:49:02.406Z,45.00
2018-07-10T05:50:02.388Z,45.00
2018-07-10T05:51:02.374Z,39.38
2018-07-10T05:52:02.445Z,39.38
2018-07-10T05:53:02.349Z,45.00
2018-07-10T05:54:02.331Z,39.38
2018-07-10T05:55:02.318Z,39.38
2018-07-10T05:56:02.300Z,39.38
2018-07-10T05:57:02.289Z,39.38
2018-07-10T05:58:02.274Z,39.38
2018-07-10T05:59:02.262Z,45.00
2018-07-10T06:00:02.247Z,45.00
2018-07-10T06:01:02.230Z,50.63
2018-07-10T06:02:02.228Z,45.00
2018-07-10T06:03:02.205Z,45.00
2018-07-10T06:04:02.190Z,45.00
2018-07-10T06:05:02.179Z,45.00
2018-07-10T06:06:02.160Z,45.00
2018-07-10T06:07:02.148Z,45.00
2018-07-10T06:08:02.134Z,45.00
2018-07-10T06:09:02.122Z,45.00
2018-07-10T06:10:02.108Z,45.00
2018-07-10T06:11:02.091Z,50.63
2018-07-10T06:12:02.075Z,56.25
2018-07-10T06:13:02.062Z,61.88
2018-07-10T06:14:02.076Z,61.88
2018-07-10T06:15:02.034Z,61.88
2018-07-10T06:16:02.021Z,67.50
2018-07-10T06:17:02.006Z,73.13
2018-07-10T06:18:01.989Z,84.38
2018-07-10T06:19:01.990Z,90.00
2018-07-10T06:20:01.964Z,95.63
2018-07-10T06:21:01.948Z,95.63
2018-07-10T06:22:01.932Z,101.25
2018-07-10T06:23:01.920Z,106.88
2018-07-10T06:24:01.906Z,118.13
2018-07-10T06:25:01.891Z,129.38
2018-07-10T06:26:01.878Z,135.00
2018-07-10T06:27:01.865Z,135.00
2018-07-10T06:28:01.848Z,140.63
2018-07-10T06:29:01.840Z,146.25
2018-07-10T06:30:01.820Z,157.50
2018-07-10T06:31:01.804Z,163.13
2018-07-10T06:32:01.794Z,168.75
2018-07-10T06:33:01.777Z,163.13
2018-07-10T06:34:01.762Z,157.50
2018-07-10T06:35:01.747Z,157.50
2018-07-10T06:36:01.734Z,151.88
2018-07-10T06:37:01.722Z,140.63
2018-07-10T06:38:01.709Z,140.63
2018-07-10T06:39:01.692Z,140.63
2018-07-10T06:40:01.676Z,135.00
2018-07-10T06:41:01.663Z,129.38
2018-07-10T06:42:01.645Z,135.00
2018-07-10T06:43:01.633Z,135.00
2018-07-10T06:44:01.622Z,140.63
2018-07-10T06:45:01.612Z,151.88
2018-07-10T06:46:01.593Z,168.75
2018-07-10T06:47:01.579Z,196.88
2018-07-10T06:48:01.563Z,225.00
2018-07-10T06:49:01.553Z,247.50
2018-07-10T06:50:01.531Z,270.00
2018-07-10T06:51:01.520Z,298.13
2018-07-10T06:52:01.507Z,275.63
2018-07-10T06:53:01.739Z,264.38
2018-07-10T06:54:01.477Z,275.63
2018-07-10T06:55:01.466Z,292.50
2018-07-10T06:56:01.449Z,309.38
2018-07-10T06:57:01.435Z,298.13
2018-07-10T06:58:01.424Z,275.63
2018-07-10T06:59:01.406Z,264.38
2018-07-10T07:00:01.397Z,264.38
2018-07-10T07:01:01.379Z,264.38
2018-07-10T07:02:01.365Z,270.00
2018-07-10T07:03:01.349Z,281.25
2018-07-10T07:04:01.341Z,298.13
2018-07-10T07:05:01.324Z,303.75
2018-07-10T07:06:01.309Z,298.13
2018-07-10T07:07:01.297Z,292.50
2018-07-10T07:08:01.346Z,275.63
2018-07-10T07:09:01.269Z,258.75
2018-07-10T07:10:01.255Z,253.13
2018-07-10T07:11:01.240Z,253.13
2018-07-10T07:12:01.227Z,236.25
2018-07-10T07:13:01.216Z,241.88
2018-07-10T07:14:01.207Z,281.25
2018-07-10T07:15:01.190Z,326.25
2018-07-10T07:16:01.173Z,326.25
2018-07-10T07:17:01.159Z,292.50
2018-07-10T07:18:01.145Z,258.75
2018-07-10T07:19:01.131Z,247.50
2018-07-10T07:20:01.118Z,241.88
2018-07-10T07:21:01.104Z,270.00
2018-07-10T07:22:01.102Z,286.88
2018-07-10T07:23:01.083Z,270.00
2018-07-10T07:24:01.065Z,241.88
2018-07-10T07:25:01.057Z,264.38
2018-07-10T07:26:01.038Z,275.63
2018-07-10T07:27:01.026Z,275.63
2018-07-10T07:28:01.012Z,298.13
2018-07-10T07:29:00.997Z,309.38
2018-07-10T07:30:00.985Z,298.13
2018-07-10T07:31:00.972Z,309.38
2018-07-10T07:32:00.959Z,331.88
2018-07-10T07:33:00.947Z,331.88
2018-07-10T07:34:00.935Z,337.50
2018-07-10T07:35:00.966Z,326.25
2018-07-10T07:36:00.908Z,298.13
2018-07-10T07:37:00.892Z,270.00
2018-07-10T07:38:00.879Z,275.63
2018-07-10T07:39:00.868Z,286.88
2018-07-10T07:40:00.854Z,298.13
2018-07-10T07:41:00.842Z,298.13
2018-07-10T07:42:00.829Z,292.50
2018-07-10T07:43:00.814Z,275.63
2018-07-10T07:44:00.933Z,264.38
2018-07-10T07:45:00.788Z,253.13
2018-07-10T07:46:00.776Z,241.88
2018-07-10T07:47:00.763Z,230.63
2018-07-10T07:48:00.750Z,219.38
2018-07-10T07:49:00.737Z,213.75
2018-07-10T07:50:00.733Z,213.75
2018-07-10T07:51:00.709Z,213.75
2018-07-10T07:52:00.698Z,236.25
2018-07-10T07:53:00.688Z,241.88
2018-07-10T07:54:00.671Z,247.50
2018-07-10T07:55:00.665Z,275.63
2018-07-10T07:56:00.645Z,326.25
2018-07-10T07:57:00.632Z,360.00
2018-07-10T07:58:00.620Z,410.63
2018-07-10T07:59:00.609Z,438.75
2018-07-10T08:00:00.595Z,461.25
2018-07-10T08:01:00.582Z,478.13
2018-07-10T08:02:00.567Z,495.00
2018-07-10T08:03:00.558Z,489.38
2018-07-10T08:04:00.540Z,500.63
2018-07-10T08:05:00.528Z,585.00
2018-07-10T08:06:00.515Z,601.88
2018-07-10T08:07:00.504Z,748.13
2018-07-10T08:08:00.489Z,618.75
2018-07-10T08:09:00.477Z,731.25
2018-07-10T08:10:00.464Z,1423.13
2018-07-10T08:11:00.451Z,680.63
2018-07-10T08:12:00.438Z,956.25
2018-07-10T08:13:00.425Z,579.38
2018-07-10T08:14:00.418Z,534.38
2018-07-10T08:15:00.401Z,573.75
2018-07-10T08:16:00.389Z,461.25
2018-07-10T08:17:00.379Z,495.00
2018-07-10T08:18:00.368Z,568.13
2018-07-10T08:19:00.352Z,590.63
2018-07-10T08:20:00.344Z,663.75
2018-07-10T08:21:01.140Z,556.88
2018-07-10T08:22:00.313Z,517.50
2018-07-10T08:23:00.303Z,607.50
2018-07-10T08:24:00.294Z,579.38
2018-07-10T08:25:00.280Z,618.75
2018-07-10T08:26:00.266Z,579.38
2018-07-10T08:27:00.257Z,556.88
2018-07-10T08:28:00.243Z,663.75
2018-07-10T08:29:00.236Z,618.75
2018-07-10T08:30:00.218Z,725.63
2018-07-10T08:31:00.205Z,866.25
2018-07-10T08:32:00.199Z,1350.00
2018-07-10T08:33:00.187Z,630.00
2018-07-10T08:34:00.247Z,568.13
2018-07-10T08:35:00.159Z,691.88
2018-07-10T08:36:00.151Z,601.88
2018-07-10T08:37:00.136Z,461.25
2018-07-10T08:38:00.133Z,534.38
2018-07-10T08:39:00.116Z,495.00
2018-07-10T08:40:00.110Z,506.25
2018-07-10T08:41:00.089Z,438.75
2018-07-10T08:42:00.080Z,416.25
2018-07-10T08:43:00.071Z,399.38
2018-07-10T08:44:00.055Z,382.50
2018-07-10T08:45:00.075Z,365.63
2018-07-10T08:46:00.032Z,360.00
2018-07-10T08:47:00.018Z,371.25
2018-07-10T08:48:00.017Z,405.00
2018-07-10T08:48:59.995Z,466.88
2018-07-10T08:49:59.984Z,506.25
2018-07-10T08:50:59.970Z,534.38
2018-07-10T08:51:59.958Z,568.13
2018-07-10T08:52:59.951Z,607.50
2018-07-10T08:53:59.934Z,669.38
2018-07-10T08:54:59.926Z,720.00
2018-07-10T08:55:59.916Z,956.25
2018-07-10T08:56:59.901Z,984.38
2018-07-10T08:57:59.888Z,1575.00
2018-07-10T08:58:59.881Z,1597.50
2018-07-10T08:59:59.866Z,843.75
2018-07-10T09:00:59.860Z,866.25
2018-07-10T09:01:59.841Z,781.88
2018-07-10T09:02:59.829Z,748.13
2018-07-10T09:03:59.824Z,697.50
2018-07-10T09:04:59.811Z,663.75
2018-07-10T09:05:59.797Z,658.13
2018-07-10T09:06:59.784Z,669.38
2018-07-10T09:07:59.856Z,646.88
2018-07-10T09:08:59.763Z,601.88
2018-07-10T09:09:59.750Z,573.75
2018-07-10T09:10:59.741Z,551.25
2018-07-10T09:11:59.733Z,528.75
2018-07-10T09:12:59.715Z,517.50
2018-07-10T09:13:59.767Z,523.13
2018-07-10T09:14:59.692Z,534.38
2018-07-10T09:15:59.681Z,551.25
2018-07-10T09:16:59.670Z,562.50
2018-07-10T09:17:59.660Z,590.63
2018-07-10T09:18:59.648Z,646.88
2018-07-10T09:19:59.638Z,708.75
2018-07-10T09:20:59.625Z,714.38
2018-07-10T09:21:59.613Z,736.88
2018-07-10T09:22:59.604Z,731.25
2018-07-10T09:23:59.593Z,708.75
2018-07-10T09:24:59.578Z,736.88
2018-07-10T09:25:59.571Z,697.50
2018-07-10T09:26:59.555Z,652.50
2018-07-10T09:27:59.555Z,601.88
2018-07-10T09:28:59.538Z,545.63
2018-07-10T09:29:59.523Z,500.63
2018-07-10T09:30:59.514Z,472.50
2018-07-10T09:31:59.504Z,444.38
2018-07-10T09:32:59.494Z,427.50
2018-07-10T09:33:59.479Z,421.88
2018-07-10T09:34:59.468Z,433.13
2018-07-10T09:35:59.456Z,444.38
2018-07-10T09:36:59.445Z,461.25
2018-07-10T09:37:59.452Z,478.13
2018-07-10T09:38:59.422Z,489.38
2018-07-10T09:39:59.432Z,500.63
2018-07-10T09:40:59.402Z,523.13
2018-07-10T09:41:59.392Z,562.50
2018-07-10T09:42:59.376Z,635.63
2018-07-10T09:43:59.415Z,742.50
2018-07-10T09:44:59.354Z,832.50
2018-07-10T09:45:59.343Z,961.88
2018-07-10T09:46:59.396Z,1293.75
2018-07-10T09:47:59.322Z,1040.63
2018-07-10T09:48:59.316Z,1665.00
2018-07-10T09:49:59.301Z,1366.88
2018-07-10T09:50:59.287Z,1794.38
2018-07-10T09:51:59.280Z,2283.75
2018-07-10T09:52:59.270Z,3847.50
2018-07-10T09:53:59.256Z,6384.38
2018-07-10T09:54:59.438Z,5872.50
2018-07-10T09:55:59.235Z,5844.38
2018-07-10T09:56:59.228Z,5709.38
2018-07-10T09:57:59.216Z,5726.25
2018-07-10T09:58:59.207Z,5850.00
2018-07-10T09:59:59.203Z,6091.88
2018-07-10T10:00:59.192Z,6255.00
2018-07-10T10:01:59.248Z,5265.00
2018-07-10T10:02:59.180Z,4584.38
2018-07-10T10:03:59.168Z,6406.88
2018-07-10T10:04:59.162Z,6367.50
2018-07-10T10:05:59.155Z,6311.25
2018-07-10T10:06:59.155Z,6283.13
2018-07-10T10:07:59.148Z,6294.38
2018-07-10T10:08:59.143Z,6255.00
2018-07-10T10:09:59.133Z,6322.50
2018-07-10T10:10:59.133Z,6311.25
2018-07-10T10:11:59.125Z,6328.13
2018-07-10T10:12:59.119Z,6401.25
2018-07-10T10:13:59.114Z,6198.75
2018-07-10T10:14:59.113Z,3408.75
2018-07-10T10:15:59.108Z,2722.50
2018-07-10T10:16:59.105Z,3105.00
2018-07-10T10:17:59.101Z,3369.38
2018-07-10T10:18:59.097Z,3133.13
2018-07-10T10:19:59.097Z,2936.25
2018-07-10T10:20:59.093Z,3065.63
2018-07-10T10:21:59.088Z,2385.00
2018-07-10T10:22:59.084Z,1130.63
2018-07-10T10:23:59.080Z,2407.50
2018-07-10T10:24:59.082Z,1074.38
2018-07-10T10:25:59.077Z,1035.00
2018-07-10T10:26:59.073Z,1440.00
2018-07-10T10:27:59.070Z,3150.00
2018-07-10T10:28:59.066Z,3487.50
2018-07-10T10:29:59.062Z,3234.38
2018-07-10T10:30:59.063Z,3948.75
2018-07-10T10:31:59.056Z,3082.50
2018-07-10T10:32:59.054Z,1940.63
2018-07-10T10:33:59.051Z,1355.63
2018-07-10T10:34:59.047Z,1541.25
2018-07-10T10:35:59.047Z,1147.50
2018-07-10T10:36:59.047Z,1080.00
2018-07-10T10:37:59.039Z,973.13
2018-07-10T10:38:59.043Z,866.25
2018-07-10T10:39:59.030Z,838.13
2018-07-10T10:40:59.036Z,798.75
2018-07-10T10:41:59.025Z,731.25
2018-07-10T10:42:59.023Z,691.88
2018-07-10T10:43:59.017Z,675.00
2018-07-10T10:44:59.014Z,703.13
2018-07-10T10:45:59.009Z,601.88
2018-07-10T10:46:59.006Z,416.25
2018-07-10T10:47:59.001Z,354.38
2018-07-10T10:48:58.998Z,326.25
2018-07-10T10:49:58.996Z,326.25
2018-07-10T10:50:58.990Z,343.13
2018-07-10T10:51:58.991Z,371.25
2018-07-10T10:52:58.984Z,421.88
2018-07-10T10:53:58.978Z,489.38
2018-07-10T10:54:59.041Z,545.63
2018-07-10T10:55:58.978Z,579.38
2018-07-10T10:56:58.963Z,585.00
2018-07-10T10:57:58.956Z,607.50
2018-07-10T10:58:58.954Z,641.25
2018-07-10T10:59:58.947Z,646.88
2018-07-10T11:00:58.943Z,675.00
2018-07-10T11:01:58.936Z,708.75
2018-07-10T11:02:58.933Z,703.13
2018-07-10T11:03:58.928Z,686.25
2018-07-10T11:04:58.922Z,658.13
2018-07-10T11:05:58.916Z,646.88
2018-07-10T11:06:58.909Z,663.75
2018-07-10T11:07:58.909Z,669.38
2018-07-10T11:08:58.899Z,686.25
2018-07-10T11:09:58.899Z,680.63
2018-07-10T11:10:58.894Z,635.63
2018-07-10T11:11:58.879Z,568.13
2018-07-10T11:12:58.928Z,528.75
2018-07-10T11:13:58.867Z,545.63
2018-07-10T11:14:58.862Z,601.88
2018-07-10T11:15:58.857Z,680.63
2018-07-10T11:16:58.857Z,725.63
2018-07-10T11:17:58.845Z,753.75
2018-07-10T11:18:58.838Z,742.50
2018-07-10T11:19:58.829Z,736.88
2018-07-10T11:20:58.822Z,742.50
2018-07-10T11:21:58.814Z,759.38
2018-07-10T11:22:58.808Z,753.75
2018-07-10T11:23:58.804Z,759.38
2018-07-10T11:24:58.800Z,826.88
2018-07-10T11:25:58.785Z,950.63
2018-07-10T11:26:58.782Z,1074.38
2018-07-10T11:27:58.775Z,1096.88
2018-07-10T11:28:58.768Z,1254.38
2018-07-10T11:29:58.758Z,1023.75
2018-07-10T11:30:58.751Z,916.88
2018-07-10T11:31:58.758Z,838.13
2018-07-10T11:32:58.738Z,815.63
2018-07-10T11:33:58.732Z,810.00
2018-07-10T11:34:58.729Z,781.88
2018-07-10T11:35:58.723Z,753.75
2018-07-10T11:36:58.711Z,680.63
2018-07-10T11:37:58.704Z,630.00
2018-07-10T11:38:58.748Z,613.13
2018-07-10T11:39:58.690Z,601.88
2018-07-10T11:40:58.686Z,585.00
2018-07-10T11:41:58.680Z,568.13
2018-07-10T11:42:58.668Z,568.13
2018-07-10T11:43:58.666Z,601.88
2018-07-10T11:44:58.657Z,748.13
2018-07-10T11:45:58.648Z,866.25
2018-07-10T11:46:58.643Z,866.25
2018-07-10T11:47:58.636Z,815.63
2018-07-10T11:48:58.626Z,759.38
2018-07-10T11:49:58.633Z,675.00
2018-07-10T11:50:58.619Z,573.75
2018-07-10T11:51:58.607Z,495.00
2018-07-10T11:52:58.600Z,461.25
2018-07-10T11:53:58.596Z,433.13
2018-07-10T11:54:58.587Z,416.25
2018-07-10T11:55:58.575Z,399.38
2018-07-10T11:56:58.574Z,376.88
2018-07-10T11:57:58.562Z,365.63
2018-07-10T11:58:58.558Z,354.38
2018-07-10T11:59:58.553Z,337.50
2018-07-10T12:00:58.539Z,337.50
2018-07-10T12:01:58.583Z,337.50
2018-07-10T12:02:58.522Z,326.25
2018-07-10T12:03:58.516Z,315.00
2018-07-10T12:04:58.511Z,303.75
2018-07-10T12:05:58.508Z,298.13
2018-07-10T12:06:58.490Z,292.50
2018-07-10T12:07:58.483Z,292.50
2018-07-10T12:08:58.474Z,286.88
2018-07-10T12:09:58.468Z,286.88
2018-07-10T12:10:58.458Z,286.88
2018-07-10T12:11:58.447Z,286.88
2018-07-10T12:12:58.440Z,286.88
2018-07-10T12:13:58.430Z,286.88
2018-07-10T12:14:58.429Z,292.50
2018-07-10T12:15:58.410Z,292.50
2018-07-10T12:16:58.407Z,298.13
2018-07-10T12:17:58.395Z,298.13
2018-07-10T12:18:58.389Z,298.13
2018-07-10T12:19:58.375Z,292.50
2018-07-10T12:20:58.371Z,303.75
2018-07-10T12:21:58.362Z,315.00
2018-07-10T12:22:58.348Z,326.25
2018-07-10T12:23:58.338Z,337.50
2018-07-10T12:24:58.329Z,354.38
2018-07-10T12:25:58.317Z,360.00
2018-07-10T12:26:58.310Z,360.00
2018-07-10T12:27:58.329Z,360.00
2018-07-10T12:28:58.292Z,360.00
2018-07-10T12:29:58.282Z,360.00
2018-07-10T12:30:58.276Z,354.38
2018-07-10T12:31:58.267Z,354.38
2018-07-10T12:32:58.250Z,343.13
2018-07-10T12:33:58.240Z,331.88
2018-07-10T12:34:58.252Z,320.63
2018-07-10T12:35:58.226Z,309.38
2018-07-10T12:36:58.213Z,309.38
2018-07-10T12:37:58.200Z,320.63
2018-07-10T12:38:58.190Z,320.63
2018-07-10T12:39:58.180Z,320.63
2018-07-10T12:40:58.171Z,303.75
2018-07-10T12:41:58.160Z,298.13
2018-07-10T12:42:58.148Z,286.88
2018-07-10T12:43:58.139Z,298.13
2018-07-10T12:44:58.127Z,320.63